Current Ellington METAR:

KEFD 150450Z 00000KT 10SM CLR 27/24 A2994


Current Ellington TAF:

TAF AMD KEFD 132155Z 1322/1502 VRB06KT 9000 -SHRA SCT050 BKN070 QNH2988INS TEMPO 1322/1401 VRB10G15KT 8000 -TSRA BKN050CB BECMG 1400/1401 VRB06KT 9999 NSW BKN050 QNH2987INS BECMG 1419/1420 VRB06KT 9000 -SHRA FEW055 QNH2989INS BECMG 1500/1501 VRB06KT 9999 NSW FEW055 QNH2986INS TX34/1322Z TN25/1411Z

The location could not be found.

Current Aircraft on Radar: